Time;durP1;ratioP1;P1;durP2;ratioP2;P2;SDS_P1;SDS_P2;PMS_P1;PMS_P2;Temp;Humidity;BMP_temperature;BMP_pressure;BME280_temperature;BME280_humidity;BME280_pressure;Samples;Min_cycle;Max_cycle;Signal;HPM_P1;HPM_P2
2021/04/02 00:00:10;;;;;;;8.00;5.97;;;;;;;8.03;59.73;101077.34;5095052;28;20400;-64
2021/04/02 00:02:37;;;;;;;9.85;5.90;;;;;;;7.98;59.96;101070.97;5095198;28;20052;-64
2021/04/02 00:05:07;;;;;;;10.15;6.03;;;;;;;7.96;59.39;101068.53;5094619;28;20052;-65
2021/04/02 00:07:35;;;;;;;7.70;6.10;;;;;;;7.93;60.07;101067.13;5095098;28;20059;-65
2021/04/02 00:10:03;;;;;;;7.20;5.75;;;;;;;7.98;60.80;101069.06;5094542;28;20052;-65
2021/04/02 00:12:30;;;;;;;8.15;5.97;;;;;;;8.04;60.61;101067.94;5094210;28;20062;-65
2021/04/02 00:14:57;;;;;;;9.18;6.00;;;;;;;8.13;60.96;101066.22;5094222;28;20051;-65
2021/04/02 00:17:24;;;;;;;6.60;5.20;;;;;;;8.25;60.86;101070.59;5094641;28;20063;-65
2021/04/02 00:19:51;;;;;;;11.63;5.60;;;;;;;8.35;60.62;101073.34;5094757;28;20056;-65
2021/04/02 00:22:18;;;;;;;8.52;5.50;;;;;;;8.47;60.40;101071.09;5094318;28;20461;-65
2021/04/02 00:24:46;;;;;;;7.45;5.05;;;;;;;8.58;59.60;101069.09;5093655;28;20059;-65
2021/04/02 00:27:13;;;;;;;7.25;5.43;;;;;;;8.70;59.61;101075.13;5094323;28;20492;-65
2021/04/02 00:29:39;;;;;;;11.25;5.45;;;;;;;8.81;58.71;101075.06;5093882;28;20063;-65
2021/04/02 00:32:07;;;;;;;6.40;5.18;;;;;;;8.93;59.38;101078.34;5094535;28;20052;-65
2021/04/02 00:34:34;;;;;;;8.75;5.35;;;;;;;9.00;58.24;101066.88;5094415;28;20044;-65
2021/04/02 00:37:01;;;;;;;6.65;5.63;;;;;;;9.11;57.98;101068.47;5093767;28;20055;-65
2021/04/02 00:39:28;;;;;;;8.20;5.68;;;;;;;9.18;57.96;101066.19;5094166;28;20056;-65
2021/04/02 00:41:56;;;;;;;9.07;5.72;;;;;;;9.25;57.49;101068.63;5094052;28;20082;-65
2021/04/02 00:44:23;;;;;;;8.68;5.57;;;;;;;9.29;57.33;101069.72;5093838;28;20052;-65
2021/04/02 00:46:50;;;;;;;8.75;5.90;;;;;;;9.34;57.92;101064.94;5093840;28;20055;-65
2021/04/02 00:49:17;;;;;;;7.22;5.30;;;;;;;9.36;57.75;101067.41;5094424;28;20052;-65
2021/04/02 00:51:44;;;;;;;11.70;6.43;;;;;;;9.39;57.54;101061.28;5093497;28;20408;-65
2021/04/02 00:54:11;;;;;;;8.45;5.75;;;;;;;9.44;57.99;101058.44;5093908;28;20052;-65
2021/04/02 00:56:38;;;;;;;7.57;5.78;;;;;;;9.48;57.61;101062.31;5091895;28;20142;-65
2021/04/02 00:59:06;;;;;;;7.45;5.35;;;;;;;9.49;57.58;101063.13;5093487;28;20056;-65
2021/04/02 01:01:33;;;;;;;9.15;5.72;;;;;;;9.51;57.87;101058.09;5094117;28;20047;-65
2021/04/02 01:04:00;;;;;;;8.23;5.90;;;;;;;9.50;56.65;101053.66;5093309;28;20048;-65
2021/04/02 01:06:28;;;;;;;8.88;5.60;;;;;;;9.55;56.76;101050.81;5093406;28;20052;-65
2021/04/02 01:08:56;;;;;;;8.52;5.93;;;;;;;9.58;56.75;101050.25;5093292;28;20473;-65
2021/04/02 01:11:26;;;;;;;7.88;5.70;;;;;;;9.57;56.77;101048.59;5092883;28;20056;-65
2021/04/02 01:13:56;;;;;;;8.13;5.63;;;;;;;9.60;57.24;101042.44;5093432;28;20052;-65
2021/04/02 01:16:26;;;;;;;9.45;5.78;;;;;;;9.59;56.81;101051.09;5092974;28;20059;-65
2021/04/02 01:18:58;;;;;;;9.63;6.20;;;;;;;9.61;56.41;101044.09;5093394;28;20101;-65
2021/04/02 01:21:30;;;;;;;9.38;6.28;;;;;;;9.62;56.78;101048.56;5093580;28;20492;-65
2021/04/02 01:24:21;;;;;;;8.45;5.75;;;;;;;9.58;56.19;101044.69;5092711;28;20048;-65
2021/04/02 01:27:13;;;;;;;8.93;6.20;;;;;;;9.45;56.62;101056.47;5093197;28;20052;-65
2021/04/02 01:29:54;;;;;;;7.88;5.57;;;;;;;9.33;56.57;101052.16;5093243;28;20052;-65
2021/04/02 01:32:25;;;;;;;9.13;5.72;;;;;;;9.22;57.55;101053.38;5091947;28;20079;-65
2021/04/02 01:34:58;;;;;;;10.00;6.07;;;;;;;9.10;57.33;101050.13;5092621;28;20048;-65
2021/04/02 01:37:28;;;;;;;10.90;6.00;;;;;;;8.99;58.14;101046.63;5092770;28;20055;-66
2021/04/02 01:39:58;;;;;;;10.52;6.00;;;;;;;8.85;58.04;101049.19;5092732;28;20412;-65
2021/04/02 01:42:29;;;;;;;11.35;6.55;;;;;;;8.74;58.38;101047.63;5093520;28;20056;-65
2021/04/02 01:44:58;;;;;;;10.30;6.38;;;;;;;8.65;59.04;101055.75;5093088;28;20044;-65
2021/04/02 01:47:27;;;;;;;9.23;6.10;;;;;;;8.55;58.69;101050.25;5092770;28;20051;-65
2021/04/02 01:49:55;;;;;;;8.85;6.10;;;;;;;8.41;60.00;101050.03;5093294;28;20051;-65
2021/04/02 01:52:24;;;;;;;12.48;7.40;;;;;;;8.33;59.97;101061.69;5092723;28;20055;-65
2021/04/02 01:54:51;;;;;;;10.00;6.60;;;;;;;8.23;60.34;101056.19;5093143;28;20040;-65
2021/04/02 01:57:19;;;;;;;11.65;6.78;;;;;;;8.12;60.76;101059.00;5092758;28;20044;-65
2021/04/02 01:59:47;;;;;;;11.50;6.53;;;;;;;8.03;61.37;101052.38;5091951;28;20063;-65
2021/04/02 02:02:17;;;;;;;10.68;6.80;;;;;;;7.95;62.04;101052.16;5092310;28;20059;-65
2021/04/02 02:04:46;;;;;;;18.15;7.82;;;;;;;7.87;61.69;101051.63;5092368;28;20047;-65
2021/04/02 02:07:15;;;;;;;10.63;7.13;;;;;;;7.76;61.84;101046.38;5092299;28;20079;-65
2021/04/02 02:09:47;;;;;;;8.88;7.15;;;;;;;7.69;62.07;101047.50;5092376;28;20059;-65
2021/04/02 02:12:17;;;;;;;12.25;7.60;;;;;;;7.63;62.06;101053.34;5092307;28;20060;-65
2021/04/02 02:14:49;;;;;;;13.38;7.57;;;;;;;7.56;62.94;101056.41;5092193;28;20052;-65
2021/04/02 02:17:20;;;;;;;14.52;7.18;;;;;;;7.50;63.08;101057.53;5092550;28;20063;-65
2021/04/02 02:19:49;;;;;;;14.15;7.82;;;;;;;7.44;62.98;101053.91;5092439;28;20055;-65
2021/04/02 02:22:17;;;;;;;13.05;7.60;;;;;;;7.38;63.34;101054.22;5092839;28;20048;-65
2021/04/02 02:24:45;;;;;;;13.30;7.97;;;;;;;7.30;63.96;101055.59;5091627;28;20052;-65
2021/04/02 02:27:13;;;;;;;13.07;7.18;;;;;;;7.28;63.60;101061.41;5093151;28;20059;-64
2021/04/02 02:29:40;;;;;;;12.65;8.13;;;;;;;7.28;64.47;101063.34;5092655;28;20056;-64
2021/04/02 02:32:08;;;;;;;12.75;6.90;;;;;;;7.32;63.52;101056.16;5092620;28;20405;-64
2021/04/02 02:34:36;;;;;;;11.15;6.22;;;;;;;7.30;62.52;101061.13;5092075;28;20122;-64
2021/04/02 02:37:04;;;;;;;10.50;6.32;;;;;;;7.32;62.36;101064.47;5089755;28;20057;-65
2021/04/02 02:39:32;;;;;;;9.98;6.10;;;;;;;7.37;61.94;101053.38;5085112;28;20051;-64
2021/04/02 02:42:03;;;;;;;11.48;6.65;;;;;;;7.39;61.89;101058.63;5091916;28;20044;-64
2021/04/02 02:44:33;;;;;;;10.02;6.70;;;;;;;7.42;62.58;101049.78;5092058;28;20052;-65
2021/04/02 02:47:04;;;;;;;10.18;6.63;;;;;;;7.46;62.58;101046.16;5092115;28;20055;-65
2021/04/02 02:49:32;;;;;;;7.82;5.82;;;;;;;7.49;62.90;101045.59;5092375;28;20048;-65
2021/04/02 02:52:05;;;;;;;9.18;6.20;;;;;;;7.56;62.76;101048.09;5092227;28;20056;-64
2021/04/02 02:54:36;;;;;;;14.20;6.65;;;;;;;7.65;62.11;101053.91;5091779;28;20492;-64
2021/04/02 02:57:06;;;;;;;9.85;6.40;;;;;;;7.70;61.72;101051.09;5091664;28;20059;-64
2021/04/02 02:59:36;;;;;;;9.73;6.57;;;;;;;7.69;61.74;101047.50;5092668;28;20055;-65
2021/04/02 03:02:04;;;;;;;10.50;6.00;;;;;;;7.75;61.90;101050.25;5092132;28;20048;-65
2021/04/02 03:04:31;;;;;;;10.20;6.75;;;;;;;7.81;62.16;101057.44;5091578;28;20048;-65
2021/04/02 03:07:02;;;;;;;9.57;6.72;;;;;;;7.86;62.63;101065.78;5092070;28;20055;-64
2021/04/02 03:09:33;;;;;;;10.82;7.30;;;;;;;7.94;62.54;101065.19;5091659;28;20059;-65
2021/04/02 03:12:04;;;;;;;12.25;6.97;;;;;;;8.02;62.33;101058.22;5091916;28;20413;-65
2021/04/02 03:14:32;;;;;;;9.20;7.00;;;;;;;8.07;61.75;101050.72;5092300;28;20055;-66
2021/04/02 03:17:01;;;;;;;11.23;7.53;;;;;;;8.16;61.89;101059.28;5091775;28;20119;-65
2021/04/02 03:19:29;;;;;;;14.40;8.35;;;;;;;8.26;61.15;101064.78;5092927;28;20063;-66
2021/04/02 03:21:58;;;;;;;12.98;8.63;;;;;;;8.33;61.70;101061.69;5095084;28;20052;-66
2021/04/02 03:24:26;;;;;;;14.57;9.15;;;;;;;8.40;61.14;101064.16;5095466;28;20060;-65
2021/04/02 03:26:55;;;;;;;14.10;9.18;;;;;;;8.43;61.20;101063.63;5095338;28;20052;-65
2021/04/02 03:29:24;;;;;;;14.95;8.68;;;;;;;8.48;61.61;101063.59;5095473;28;20055;-66
2021/04/02 03:31:54;;;;;;;13.35;8.93;;;;;;;8.53;60.99;101060.81;5095211;28;20069;-66
2021/04/02 03:34:21;;;;;;;;;;;;;;;8.57;60.89;101066.59;5095578;28;20071;-65
2021/04/02 03:36:51;;;;;;;13.18;9.00;;;;;;;8.60;60.89;101063.25;5094964;28;19939;-65
2021/04/02 03:39:25;;;;;;;12.50;7.88;;;;;;;8.61;60.29;101070.47;5094297;28;20055;-65
2021/04/02 03:41:57;;;;;;;11.55;7.75;;;;;;;8.60;60.46;101068.81;5095065;28;20055;-65
2021/04/02 03:44:28;;;;;;;13.23;8.55;;;;;;;8.61;60.84;101067.69;5094998;28;20052;-65
2021/04/02 03:46:57;;;;;;;14.68;8.63;;;;;;;8.61;60.24;101074.09;5095482;28;20404;-65
2021/04/02 03:49:30;;;;;;;13.27;8.23;;;;;;;8.65;60.93;101072.41;5094997;28;20063;-65
2021/04/02 03:52:01;;;;;;;14.70;9.73;;;;;;;8.68;60.55;101071.00;5094980;28;20468;-65
2021/04/02 03:54:30;;;;;;;15.02;9.13;;;;;;;8.70;60.35;101072.34;5094553;28;20052;-65
2021/04/02 03:56:58;;;;;;;13.95;9.00;;;;;;;8.68;60.85;101071.81;5093943;28;20055;-65
2021/04/02 03:59:27;;;;;;;16.02;9.20;;;;;;;8.64;61.30;101073.50;5095097;28;20492;-65
2021/04/02 04:01:55;;;;;;;14.05;9.95;;;;;;;8.62;61.81;101074.91;5094659;28;20432;-65
2021/04/02 04:04:25;;;;;;;14.35;9.57;;;;;;;8.56;61.25;101073.28;5095137;28;20436;-65
2021/04/02 04:06:57;;;;;;;18.95;9.75;;;;;;;8.56;61.97;101084.38;5095388;28;20412;-65
2021/04/02 04:09:27;;;;;;;16.10;9.48;;;;;;;8.57;61.93;101077.69;5094925;28;20381;-65
2021/04/02 04:11:55;;;;;;;;;;;;;;;8.56;61.32;101084.38;5094661;28;20052;-65
2021/04/02 04:14:23;;;;;;;15.90;9.30;;;;;;;8.53;61.43;101075.50;5094391;28;19943;-65
2021/04/02 04:16:55;;;;;;;13.57;8.88;;;;;;;8.53;62.12;101072.72;5094920;28;20048;-66
2021/04/02 04:19:24;;;;;;;15.52;9.13;;;;;;;8.55;62.06;101083.56;5094512;28;20417;-65
2021/04/02 04:21:56;;;;;;;13.98;9.15;;;;;;;8.51;61.83;101076.91;5094464;28;20378;-65
2021/04/02 04:24:25;;;;;;;16.67;8.88;;;;;;;8.49;61.85;101077.19;5094253;28;20059;-66
2021/04/02 04:26:55;;;;;;;14.87;9.33;;;;;;;8.49;62.10;101082.75;5093972;28;20052;-66
2021/04/02 04:29:23;;;;;;;;;;;;;;;8.50;62.12;101081.66;5095244;28;20048;-66
2021/04/02 04:31:53;;;;;;;17.67;9.80;;;;;;;8.48;62.70;101083.88;5094815;28;19920;-66
2021/04/02 04:34:22;;;;;;;14.25;8.88;;;;;;;8.47;62.19;101084.16;5093906;28;20048;-66
2021/04/02 04:36:50;;;;;;;14.13;8.90;;;;;;;8.48;62.56;101085.81;5092927;28;20059;-66
2021/04/02 04:39:17;;;;;;;16.50;9.68;;;;;;;8.47;62.22;101090.53;5074283;28;20048;-66
2021/04/02 04:41:46;;;;;;;17.40;8.27;;;;;;;8.51;62.15;101094.41;5079887;28;20056;-66
2021/04/02 04:44:13;;;;;;;17.45;9.10;;;;;;;8.50;62.69;101084.44;5093488;28;20059;-66
2021/04/02 04:46:41;;;;;;;15.10;8.75;;;;;;;8.49;62.35;101091.06;5094409;28;20059;-66
2021/04/02 04:49:09;;;;;;;15.30;9.25;;;;;;;8.52;62.04;101084.13;5093869;28;20055;-66
2021/04/02 04:51:36;;;;;;;18.20;9.20;;;;;;;8.57;61.98;101084.09;5093713;28;20055;-66
2021/04/02 04:54:05;;;;;;;15.35;7.97;;;;;;;8.55;62.60;101080.78;5093943;28;20531;-66
2021/04/02 04:56:33;;;;;;;17.25;8.85;;;;;;;8.58;61.89;101090.47;5093706;28;20052;-66
2021/04/02 04:59:02;;;;;;;13.45;8.55;;;;;;;8.58;61.59;101090.47;5093730;28;20059;-66
2021/04/02 05:01:40;;;;;;;15.33;8.43;;;;;;;8.53;61.72;101086.63;5094087;28;20056;-66
2021/04/02 05:04:10;;;;;;;17.15;9.38;;;;;;;8.55;61.79;101089.13;5093861;28;20469;-66
2021/04/02 05:06:38;;;;;;;15.23;8.93;;;;;;;8.55;62.42;101089.13;5093434;28;20048;-66
2021/04/02 05:09:06;;;;;;;15.27;8.05;;;;;;;8.58;62.22;101091.31;5093596;28;20507;-66
2021/04/02 05:11:37;;;;;;;14.90;8.45;;;;;;;8.58;62.36;101087.72;5093686;28;20063;-66
2021/04/02 05:14:07;;;;;;;17.63;8.57;;;;;;;8.59;62.13;101089.34;5092936;28;20055;-66
2021/04/02 05:16:34;;;;;;;15.38;8.27;;;;;;;8.54;62.32;101093.00;5093456;28;20059;-66
2021/04/02 05:19:05;;;;;;;16.00;8.05;;;;;;;8.58;61.81;101091.31;5093797;28;20063;-66
2021/04/02 05:21:33;;;;;;;18.45;8.63;;;;;;;8.52;61.93;101090.53;5093345;28;20052;-66
2021/04/02 05:24:00;;;;;;;16.50;8.73;;;;;;;8.57;61.67;101092.44;5092508;28;20043;-66
2021/04/02 05:26:27;;;;;;;13.32;8.00;;;;;;;8.57;61.88;101092.44;5093523;28;20052;-66
2021/04/02 05:28:56;;;;;;;18.45;9.07;;;;;;;8.51;61.55;101094.41;5093456;28;20056;-66
2021/04/02 05:31:23;;;;;;;14.30;8.07;;;;;;;8.49;61.71;101093.84;5093292;28;20071;-66
2021/04/02 05:33:51;;;;;;;20.35;9.60;;;;;;;8.46;61.57;101096.38;5093064;28;20044;-66
2021/04/02 05:36:18;;;;;;;14.15;8.65;;;;;;;8.42;62.43;101096.13;5093078;28;20055;-66
2021/04/02 05:38:46;;;;;;;14.98;9.13;;;;;;;8.43;61.95;101102.50;5092731;28;20409;-66
2021/04/02 05:41:14;;;;;;;16.90;8.70;;;;;;;8.43;62.65;101097.78;5085021;28;20060;-66
2021/04/02 05:43:46;;;;;;;14.93;8.80;;;;;;;8.45;61.99;101105.81;5085377;28;20053;-66
2021/04/02 05:46:17;;;;;;;11.25;8.75;;;;;;;8.47;62.38;101092.47;5092308;28;20063;-66
2021/04/02 05:48:45;;;;;;;18.13;9.57;;;;;;;8.55;61.92;101091.88;5093287;28;20048;-66
2021/04/02 05:51:13;;;;;;;13.00;9.50;;;;;;;8.56;62.00;101104.66;5092574;28;20397;-66
2021/04/02 05:53:39;;;;;;;15.70;8.60;;;;;;;8.62;61.17;101106.28;5092437;28;20056;-66
2021/04/02 05:56:09;;;;;;;14.77;8.80;;;;;;;8.62;61.44;101109.06;5092144;28;20063;-66
2021/04/02 05:58:37;;;;;;;13.25;9.00;;;;;;;8.66;61.35;101103.78;5092600;28;20044;-66
2021/04/02 06:01:05;;;;;;;14.40;9.70;;;;;;;8.69;61.23;101108.75;5072394;28;20063;-66
2021/04/02 06:03:33;;;;;;;13.52;9.23;;;;;;;8.74;60.91;101104.00;5072422;28;20413;-65
2021/04/02 06:06:00;;;;;;;14.63;9.18;;;;;;;8.79;61.94;101105.91;5072574;28;20059;-66
2021/04/02 06:08:28;;;;;;;15.73;9.98;;;;;;;8.88;60.43;101109.75;5088126;28;20052;-66
2021/04/02 06:10:55;;;;;;;13.68;9.32;;;;;;;8.91;61.12;101105.56;5091312;28;20048;-65
2021/04/02 06:13:25;;;;;;;14.15;9.07;;;;;;;8.96;60.39;101110.25;5090801;28;20404;-65
2021/04/02 06:15:53;;;;;;;16.85;9.48;;;;;;;8.93;60.92;101111.66;5088257;28;20055;-65
2021/04/02 06:18:24;;;;;;;15.32;9.18;;;;;;;9.00;60.99;101101.06;5089473;28;20055;-65
2021/04/02 06:20:52;;;;;;;14.52;9.50;;;;;;;9.03;61.33;101108.81;5091676;28;20056;-65
2021/04/02 06:23:20;;;;;;;16.77;10.40;;;;;;;9.04;61.45;101106.88;5089188;28;20067;-65
2021/04/02 06:25:49;;;;;;;18.20;10.65;;;;;;;9.07;60.47;101115.47;5090854;28;20393;-65
2021/04/02 06:28:24;;;;;;;15.25;11.43;;;;;;;9.07;60.74;101118.25;5091431;28;20059;-66
2021/04/02 06:31:00;;;;;;;20.90;11.57;;;;;;;9.08;60.34;101116.28;5091834;28;20052;-65
2021/04/02 06:33:32;;;;;;;20.30;11.88;;;;;;;9.04;60.58;101118.81;5090091;28;20055;-65
2021/04/02 06:36:00;;;;;;;15.77;11.60;;;;;;;9.04;60.63;101129.09;5090148;28;20044;-65
2021/04/02 06:38:31;;;;;;;16.58;11.50;;;;;;;9.06;60.44;101126.88;5091639;28;20051;-65
2021/04/02 06:41:05;;;;;;;18.80;12.00;;;;;;;9.05;60.29;101131.59;5091836;28;20059;-65
2021/04/02 06:43:41;;;;;;;19.13;12.20;;;;;;;9.05;60.11;101131.59;5092413;28;20056;-65
2021/04/02 06:46:10;;;;;;;18.13;12.65;;;;;;;9.06;59.74;101133.25;5092608;28;20051;-65
2021/04/02 06:48:37;;;;;;;21.83;12.77;;;;;;;9.05;60.38;101139.09;5092442;28;20412;-65
2021/04/02 06:51:11;;;;;;;17.85;12.07;;;;;;;9.00;59.95;101139.13;5091890;28;20048;-65
2021/04/02 06:53:39;;;;;;;18.02;11.85;;;;;;;9.02;60.27;101137.72;5091383;28;20489;-64
2021/04/02 06:56:08;;;;;;;19.35;11.35;;;;;;;9.03;60.67;101139.41;5094324;28;20047;-64
2021/04/02 06:58:38;;;;;;;18.35;12.32;;;;;;;9.04;59.97;101140.22;5096008;28;20056;-65
2021/04/02 07:01:07;;;;;;;18.98;12.10;;;;;;;9.02;59.94;101136.91;5095091;28;20052;-64
2021/04/02 07:03:36;;;;;;;16.13;10.93;;;;;;;9.01;60.06;101140.78;5095627;28;20059;-64
2021/04/02 07:06:05;;;;;;;15.85;11.35;;;;;;;8.97;60.40;101140.53;5095730;28;20051;-64
2021/04/02 07:08:33;;;;;;;15.95;11.45;;;;;;;8.93;60.69;101145.00;5095453;28;20075;-65
2021/04/02 07:11:01;;;;;;;17.45;11.07;;;;;;;8.87;60.80;101146.97;5095737;28;20059;-65
2021/04/02 07:13:35;;;;;;;14.90;11.45;;;;;;;8.84;60.94;101155.91;5095804;28;20044;-65
2021/04/02 07:16:03;;;;;;;17.13;10.60;;;;;;;8.73;61.25;101157.03;5095044;28;20063;-65
2021/04/02 07:18:31;;;;;;;15.98;10.90;;;;;;;8.73;61.11;101157.03;5094079;28;20059;-65
2021/04/02 07:20:59;;;;;;;19.67;13.05;;;;;;;8.70;61.66;101152.06;5095021;28;20067;-65
2021/04/02 07:23:27;;;;;;;20.30;13.85;;;;;;;8.69;61.63;101153.19;5095213;28;20071;-66
2021/04/02 07:25:55;;;;;;;24.30;15.00;;;;;;;8.63;61.26;101157.94;5109705;28;20069;-66
2021/04/02 07:28:24;;;;;;;20.05;14.65;;;;;;;8.62;61.50;101156.28;5115915;28;20074;-65
2021/04/02 07:30:52;;;;;;;28.33;16.37;;;;;;;8.66;61.10;101150.97;5115545;28;20063;-65
2021/04/02 07:33:22;;;;;;;22.17;14.43;;;;;;;8.68;61.38;101154.31;5105165;28;20461;-65
2021/04/02 07:35:56;;;;;;;21.58;13.98;;;;;;;8.68;61.25;101152.34;5094452;28;20067;-65
2021/04/02 07:38:27;;;;;;;20.85;14.55;;;;;;;8.68;61.44;101148.75;5085331;28;20044;-66
2021/04/02 07:40:54;;;;;;;21.67;14.23;;;;;;;8.70;61.11;101149.31;5091436;28;20052;-66
2021/04/02 07:43:28;;;;;;;24.95;15.15;;;;;;;8.71;61.66;101156.50;5093543;28;20061;-66
2021/04/02 07:46:00;;;;;;;21.55;14.23;;;;;;;8.70;61.88;101149.31;5093305;28;20457;-66
2021/04/02 07:48:27;;;;;;;23.85;15.23;;;;;;;8.68;61.56;101148.75;5093901;28;20485;-66
2021/04/02 07:50:57;;;;;;;25.20;15.77;;;;;;;8.68;62.23;101160.69;5093674;28;20079;-66
2021/04/02 07:53:44;;;;;;;25.23;15.80;;;;;;;8.72;61.68;101160.97;5093964;28;20048;-66
2021/04/02 07:56:13;;;;;;;23.23;15.60;;;;;;;8.66;61.88;101168.47;5090168;28;20400;-65
2021/04/02 07:58:46;;;;;;;21.40;14.90;;;;;;;8.68;61.62;101171.78;5086689;28;20055;-66
2021/04/02 08:01:16;;;;;;;24.23;14.20;;;;;;;8.73;61.96;101176.50;5089855;28;20059;-66
2021/04/02 08:03:46;;;;;;;;;;;;;;;8.71;61.68;101164.84;5087340;28;20404;-65
2021/04/02 08:06:29;;;;;;;18.15;12.70;;;;;;;8.79;61.13;101166.19;5094092;28;19920;-64
2021/04/02 08:08:57;;;;;;;18.02;11.35;;;;;;;8.78;61.16;101168.16;5092598;28;20139;-64
2021/04/02 08:11:30;;;;;;;17.42;10.65;;;;;;;8.84;60.92;101164.22;5092548;28;20074;-64
2021/04/02 08:14:00;;;;;;;15.98;10.35;;;;;;;8.91;60.75;101166.69;5093937;28;20052;-65
2021/04/02 08:16:50;;;;;;;15.55;10.27;;;;;;;9.03;60.00;101169.97;5090354;28;20040;-64
2021/04/02 08:19:20;;;;;;;16.80;11.18;;;;;;;9.07;60.17;101167.41;5091584;28;20056;-64
2021/04/02 08:21:51;;;;;;;15.88;10.23;;;;;;;9.14;59.72;101177.09;5092191;28;20107;-65
2021/04/02 08:24:20;;;;;;;15.70;9.95;;;;;;;9.22;59.30;101181.25;5090051;28;20067;-65
2021/04/02 08:26:48;;;;;;;;;;;;;;;9.28;59.32;101185.66;5093488;28;20059;-65
2021/04/02 08:29:16;;;;;;;14.13;9.35;;;;;;;9.24;58.82;101175.38;5093540;28;19920;-65
2021/04/02 08:31:46;;;;;;;16.05;10.73;;;;;;;9.31;59.16;101178.69;5093256;28;20059;-65
2021/04/02 08:34:19;;;;;;;14.77;9.90;;;;;;;9.30;59.35;101177.00;5092406;28;20059;-65
2021/04/02 08:36:48;;;;;;;15.02;10.63;;;;;;;9.39;59.19;101180.03;5093514;28;20056;-65
2021/04/02 08:39:17;;;;;;;15.10;11.82;;;;;;;9.37;58.38;101179.47;5093782;28;20052;-65
2021/04/02 08:41:45;;;;;;;15.77;10.85;;;;;;;9.44;59.02;101177.19;5091534;28;20055;-65
2021/04/02 08:44:12;;;;;;;15.73;10.10;;;;;;;9.53;58.74;101176.28;5090573;28;20078;-65
2021/04/02 08:46:42;;;;;;;14.93;10.05;;;;;;;9.67;58.26;101184.78;5092116;28;20417;-65
2021/04/02 08:49:12;;;;;;;15.30;9.75;;;;;;;9.68;58.71;101186.47;5092699;28;20052;-64
2021/04/02 08:51:39;;;;;;;14.90;9.77;;;;;;;9.87;58.02;101177.38;5091978;28;20472;-65
2021/04/02 08:54:13;;;;;;;14.10;8.98;;;;;;;10.02;57.30;101177.25;5092269;28;20105;-65
2021/04/02 08:56:40;;;;;;;14.48;9.30;;;;;;;10.15;56.74;101181.28;5090926;28;20049;-64
2021/04/02 08:59:10;;;;;;;12.98;8.93;;;;;;;10.39;55.99;101181.31;5091381;28;20552;-63
2021/04/02 09:01:41;;;;;;;;;;;;;;;10.59;55.56;101179.44;5092277;28;20048;-62
2021/04/02 09:04:10;;;;;;;13.77;9.05;;;;;;;10.64;55.17;101182.16;5093847;28;20361;-62
2021/04/02 09:06:37;;;;;;;14.45;10.52;;;;;;;10.67;54.70;101192.72;5091302;28;20059;-62
2021/04/02 09:09:16;;;;;;;15.25;10.18;;;;;;;10.64;54.73;101185.78;5090735;28;20435;-62
2021/04/02 09:11:44;;;;;;;14.82;10.32;;;;;;;10.82;54.11;101178.59;5072949;28;20405;-61
2021/04/02 09:14:15;;;;;;;15.80;9.18;;;;;;;11.10;53.72;101175.97;5086424;28;20056;-62
2021/04/02 09:16:43;;;;;;;15.75;9.57;;;;;;;11.45;52.50;101174.63;5092311;28;20445;-62
2021/04/02 09:19:12;;;;;;;13.85;8.82;;;;;;;11.70;51.60;101175.34;5090146;28;20055;-62
2021/04/02 09:21:39;;;;;;;14.20;8.85;;;;;;;11.85;51.47;101166.69;5089854;28;20048;-61
2021/04/02 09:24:07;;;;;;;11.13;7.68;;;;;;;12.06;49.93;101171.94;5090101;28;20056;-61
2021/04/02 09:26:37;;;;;;;12.27;8.38;;;;;;;12.20;49.50;101161.63;5089845;28;20056;-60
2021/04/02 09:29:04;;;;;;;;;;;;;;;12.33;48.98;101154.41;5091297;28;20390;-62
2021/04/02 09:31:34;;;;;;;10.57;8.18;;;;;;;12.32;48.64;101158.31;5092790;28;19942;-61
2021/04/02 09:34:02;;;;;;;11.60;8.68;;;;;;;12.29;49.26;101164.53;5088577;28;20511;-61
2021/04/02 09:36:31;;;;;;;15.27;7.22;;;;;;;12.36;48.62;101157.38;5072670;28;20508;-61
2021/04/02 09:39:09;;;;;;;11.93;6.78;;;;;;;12.59;47.28;101160.28;5090199;28;20048;-61
2021/04/02 09:41:38;;;;;;;10.55;6.45;;;;;;;12.66;47.09;101157.06;5092014;28;20052;-61
2021/04/02 09:44:11;;;;;;;9.20;6.18;;;;;;;12.70;46.51;101155.31;5088296;28;20052;-62
2021/04/02 09:46:41;;;;;;;10.77;5.95;;;;;;;12.74;46.28;101164.72;5090396;28;20052;-61
2021/04/02 09:49:10;;;;;;;7.53;6.05;;;;;;;12.68;45.15;101155.66;5089967;28;20429;-61
2021/04/02 09:51:40;;;;;;;9.15;6.80;;;;;;;12.63;44.79;101166.09;5092102;28;20070;-61
2021/04/02 09:54:08;;;;;;;8.70;6.55;;;;;;;12.42;45.83;101163.72;5091725;28;20067;-61
2021/04/02 09:56:35;;;;;;;8.65;5.80;;;;;;;12.28;46.74;101163.69;5091940;28;20040;-61
2021/04/02 09:59:02;;;;;;;8.80;6.38;;;;;;;12.16;47.37;101166.19;5087887;28;20070;-61
2021/04/02 10:01:31;;;;;;;9.80;5.78;;;;;;;12.03;47.62;101153.81;5087756;28;20052;-61
2021/04/02 10:03:59;;;;;;;8.00;5.65;;;;;;;12.11;47.78;101164.28;5090739;28;20477;-61
2021/04/02 10:06:26;;;;;;;10.35;5.57;;;;;;;12.21;46.86;101159.66;5091144;28;20048;-61
2021/04/02 10:08:53;;;;;;;7.82;5.72;;;;;;;12.29;46.87;101151.41;5092156;28;20055;-63
2021/04/02 10:11:21;;;;;;;9.57;6.20;;;;;;;12.44;47.05;101153.06;5092850;28;20059;-61
2021/04/02 10:13:48;;;;;;;10.43;6.35;;;;;;;12.68;46.69;101158.44;5088329;28;20048;-61
2021/04/02 10:16:15;;;;;;;9.07;5.72;;;;;;;12.85;45.69;101159.75;5091572;28;20055;-61
2021/04/02 10:18:42;;;;;;;11.07;7.35;;;;;;;12.89;45.32;101156.03;5089846;28;20146;-61
2021/04/02 10:21:10;;;;;;;11.07;6.95;;;;;;;12.93;44.32;101148.63;5091278;28;20055;-61
2021/04/02 10:23:37;;;;;;;12.70;6.47;;;;;;;13.06;44.45;101144.19;5084455;28;20138;-62
2021/04/02 10:26:04;;;;;;;10.63;6.75;;;;;;;13.17;43.94;101139.19;5091547;28;20413;-61
2021/04/02 10:28:31;;;;;;;12.00;7.40;;;;;;;13.16;43.81;101143.09;5093768;28;20055;-61
2021/04/02 10:30:59;;;;;;;9.63;5.60;;;;;;;13.16;44.07;101131.91;5096452;28;20461;-59
2021/04/02 10:33:27;;;;;;;6.68;5.03;;;;;;;13.14;44.04;101131.41;5097026;28;20055;-60
2021/04/02 10:35:54;;;;;;;7.00;5.00;;;;;;;13.09;44.19;101131.53;5096358;28;20075;-60
2021/04/02 10:38:24;;;;;;;10.90;7.43;;;;;;;13.13;44.00;101127.78;5096086;28;20048;-61
2021/04/02 10:40:52;;;;;;;9.07;7.32;;;;;;;13.25;43.17;101124.44;5096197;28;20082;-61
2021/04/02 10:43:20;;;;;;;8.23;5.18;;;;;;;13.43;42.85;101128.22;5095355;28;20056;-61
2021/04/02 10:45:47;;;;;;;8.38;5.45;;;;;;;13.61;41.87;101134.78;5096254;28;20109;-61
2021/04/02 10:48:14;;;;;;;8.98;6.35;;;;;;;13.64;42.09;101136.94;5096053;28;20048;-61
2021/04/02 10:50:43;;;;;;;18.85;12.27;;;;;;;13.71;41.53;101142.06;5095707;28;20485;-61
2021/04/02 10:53:10;;;;;;;9.63;6.50;;;;;;;13.68;42.06;101131.53;5095485;28;20404;-61
2021/04/02 10:55:39;;;;;;;8.18;6.10;;;;;;;13.69;42.17;101130.38;5095765;28;20054;-61
2021/04/02 10:58:07;;;;;;;10.20;7.20;;;;;;;13.72;42.65;101136.16;5095059;28;20067;-61
2021/04/02 11:00:34;;;;;;;14.43;9.05;;;;;;;13.72;41.96;101138.13;5089455;28;20052;-61
2021/04/02 11:03:01;;;;;;;12.80;9.13;;;;;;;13.73;41.73;101140.63;5095335;28;20512;-61
2021/04/02 11:05:29;;;;;;;9.50;7.30;;;;;;;13.80;42.78;101132.59;5095634;28;20055;-61
2021/04/02 11:07:55;;;;;;;10.80;7.55;;;;;;;13.89;42.36;101132.63;5095695;28;20044;-60
2021/04/02 11:10:23;;;;;;;8.73;6.15;;;;;;;14.39;41.37;101132.38;5095411;28;20052;-60
2021/04/02 11:12:53;;;;;;;9.77;5.43;;;;;;;14.74;40.23;101123.25;5095850;28;20538;-60
2021/04/02 11:15:20;;;;;;;7.88;5.78;;;;;;;14.81;39.68;101129.25;5095259;28;20044;-60
2021/04/02 11:17:48;;;;;;;10.25;7.55;;;;;;;14.70;39.75;101122.25;5095586;28;20047;-61
2021/04/02 11:20:18;;;;;;;12.55;8.18;;;;;;;14.61;40.57;101131.50;5095513;28;20059;-60
2021/04/02 11:22:44;;;;;;;;;;;;;;;14.93;39.90;101126.63;5096178;28;20048;-60
2021/04/02 11:25:13;;;;;;;14.98;9.05;;;;;;;14.99;40.12;101128.13;5095527;28;19927;-61
2021/04/02 11:27:40;;;;;;;10.90;8.60;;;;;;;14.95;38.97;101124.31;5095446;28;20071;-61
2021/04/02 11:30:11;;;;;;;13.32;9.13;;;;;;;14.95;38.54;101113.09;5095175;28;20408;-61
2021/04/02 11:32:40;;;;;;;16.30;11.40;;;;;;;14.65;38.83;101112.03;5095188;28;20052;-61
2021/04/02 11:35:08;;;;;;;;;;;;;;;14.47;39.38;101113.94;5095556;28;20060;-61